sensor_id;sensor_type;location;lat;lon;timestamp;pressure;altitude;pressure_sealevel;temperature;humidity
70571;BME280;58135;50.948;-1.458;2023-01-25T00:00:16;103458.87;;;2.47;33.15
70571;BME280;58135;50.948;-1.458;2023-01-25T00:01:17;103459.24;;;2.49;33.18
70571;BME280;58135;50.948;-1.458;2023-01-25T00:02:17;103456.92;;;2.54;33.14
70571;BME280;58135;50.948;-1.458;2023-01-25T00:03:17;103455.52;;;3.03;33.11
70571;BME280;58135;50.948;-1.458;2023-01-25T00:04:18;103455.02;;;2.59;33.13
70571;BME280;58135;50.948;-1.458;2023-01-25T00:05:18;103456.33;;;3.06;33.12
70571;BME280;58135;50.948;-1.458;2023-01-25T00:06:18;103454.85;;;3.06;33.08
70571;BME280;58135;50.948;-1.458;2023-01-25T00:07:18;103453.31;;;2.54;33.02
70571;BME280;58135;50.948;-1.458;2023-01-25T00:08:19;103455.98;;;2.47;33.00
70571;BME280;58135;50.948;-1.458;2023-01-25T00:09:21;103454.30;;;2.91;33.00
70571;BME280;58135;50.948;-1.458;2023-01-25T00:10:20;103457.52;;;2.46;33.01
70571;BME280;58135;50.948;-1.458;2023-01-25T00:11:20;103459.76;;;2.90;33.04
70571;BME280;58135;50.948;-1.458;2023-01-25T00:12:21;103457.57;;;2.91;33.05
70571;BME280;58135;50.948;-1.458;2023-01-25T00:13:21;103457.62;;;2.92;33.05
70571;BME280;58135;50.948;-1.458;2023-01-25T00:14:21;103457.42;;;2.51;33.00
70571;BME280;58135;50.948;-1.458;2023-01-25T00:15:22;103453.48;;;2.92;32.99
70571;BME280;58135;50.948;-1.458;2023-01-25T00:16:23;103459.64;;;2.83;33.05
70571;BME280;58135;50.948;-1.458;2023-01-25T00:17:22;103458.67;;;2.36;33.10
70571;BME280;58135;50.948;-1.458;2023-01-25T00:18:23;103456.81;;;2.82;33.08
70571;BME280;58135;50.948;-1.458;2023-01-25T00:19:24;103457.75;;;2.36;33.10
70571;BME280;58135;50.948;-1.458;2023-01-25T00:20:25;103455.08;;;2.34;33.11
70571;BME280;58135;50.948;-1.458;2023-01-25T00:21:25;103458.35;;;2.35;33.11
70571;BME280;58135;50.948;-1.458;2023-01-25T00:22:25;103458.31;;;2.33;33.08
70571;BME280;58135;50.948;-1.458;2023-01-25T00:23:25;103458.27;;;2.76;33.11
70571;BME280;58135;50.948;-1.458;2023-01-25T00:24:26;103456.31;;;2.30;33.12
70571;BME280;58135;50.948;-1.458;2023-01-25T00:25:26;103456.56;;;2.79;33.12
70571;BME280;58135;50.948;-1.458;2023-01-25T00:26:28;103457.07;;;2.40;33.07
70571;BME280;58135;50.948;-1.458;2023-01-25T00:27:27;103451.75;;;2.43;33.04
70571;BME280;58135;50.948;-1.458;2023-01-25T00:28:28;103453.22;;;2.45;33.03
70571;BME280;58135;50.948;-1.458;2023-01-25T00:29:28;103451.54;;;2.89;33.01
70571;BME280;58135;50.948;-1.458;2023-01-25T00:30:28;103451.71;;;2.88;33.01
70571;BME280;58135;50.948;-1.458;2023-01-25T00:31:36;103452.91;;;2.41;33.00
70571;BME280;58135;50.948;-1.458;2023-01-25T00:32:39;103453.19;;;2.40;33.02
70571;BME280;58135;50.948;-1.458;2023-01-25T00:33:39;103454.25;;;2.82;33.08
70571;BME280;58135;50.948;-1.458;2023-01-25T00:34:41;103455.30;;;2.35;33.12
70571;BME280;58135;50.948;-1.458;2023-01-25T00:35:31;103455.24;;;2.36;33.11
70571;BME280;58135;50.948;-1.458;2023-01-25T00:36:32;103454.41;;;2.38;33.06
70571;BME280;58135;50.948;-1.458;2023-01-25T00:37:35;103452.06;;;2.84;33.01
70571;BME280;58135;50.948;-1.458;2023-01-25T00:38:33;103451.18;;;2.84;33.01
70571;BME280;58135;50.948;-1.458;2023-01-25T00:39:32;103447.38;;;2.37;33.01
70571;BME280;58135;50.948;-1.458;2023-01-25T00:40:33;103447.25;;;2.85;32.94
70571;BME280;58135;50.948;-1.458;2023-01-25T00:41:33;103448.68;;;2.75;32.92
70571;BME280;58135;50.948;-1.458;2023-01-25T00:42:34;103449.98;;;2.68;33.02
70571;BME280;58135;50.948;-1.458;2023-01-25T00:43:35;103447.93;;;2.20;33.06
70571;BME280;58135;50.948;-1.458;2023-01-25T00:44:36;103448.58;;;2.66;33.10
70571;BME280;58135;50.948;-1.458;2023-01-25T00:45:36;103450.92;;;2.66;33.21
70571;BME280;58135;50.948;-1.458;2023-01-25T00:46:38;103452.07;;;2.66;33.25
70571;BME280;58135;50.948;-1.458;2023-01-25T00:47:37;103450.67;;;2.63;33.17
70571;BME280;58135;50.948;-1.458;2023-01-25T00:48:38;103452.03;;;2.64;33.16
70571;BME280;58135;50.948;-1.458;2023-01-25T00:49:39;103451.69;;;2.65;33.13
70571;BME280;58135;50.948;-1.458;2023-01-25T00:50:39;103449.60;;;2.23;33.03
70571;BME280;58135;50.948;-1.458;2023-01-25T00:51:39;103450.37;;;2.67;32.90
70571;BME280;58135;50.948;-1.458;2023-01-25T00:52:40;103448.05;;;2.54;32.84
70571;BME280;58135;50.948;-1.458;2023-01-25T00:53:40;103447.74;;;2.43;32.89
70571;BME280;58135;50.948;-1.458;2023-01-25T00:54:41;103446.39;;;2.42;32.89
70571;BME280;58135;50.948;-1.458;2023-01-25T00:55:50;103446.16;;;2.44;32.87
70571;BME280;58135;50.948;-1.458;2023-01-25T00:56:42;103444.73;;;2.45;32.86
70571;BME280;58135;50.948;-1.458;2023-01-25T00:57:42;103449.04;;;2.46;32.79
70571;BME280;58135;50.948;-1.458;2023-01-25T00:58:43;103447.16;;;2.41;32.77
70571;BME280;58135;50.948;-1.458;2023-01-25T00:59:43;103450.39;;;2.39;32.81
70571;BME280;58135;50.948;-1.458;2023-01-25T01:00:44;103453.12;;;2.37;32.82
70571;BME280;58135;50.948;-1.458;2023-01-25T01:01:44;103451.34;;;2.34;32.88
70571;BME280;58135;50.948;-1.458;2023-01-25T01:02:44;103454.08;;;2.31;32.93
70571;BME280;58135;50.948;-1.458;2023-01-25T01:03:44;103454.79;;;2.32;32.97
70571;BME280;58135;50.948;-1.458;2023-01-25T01:04:45;103454.98;;;1.90;32.94
70571;BME280;58135;50.948;-1.458;2023-01-25T01:05:45;103454.49;;;2.37;32.99
70571;BME280;58135;50.948;-1.458;2023-01-25T01:06:46;103454.76;;;2.37;33.05
70571;BME280;58135;50.948;-1.458;2023-01-25T01:07:48;103452.49;;;2.34;33.09
70571;BME280;58135;50.948;-1.458;2023-01-25T01:08:48;103452.00;;;2.33;33.10
70571;BME280;58135;50.948;-1.458;2023-01-25T01:09:48;103450.70;;;2.33;33.13
70571;BME280;58135;50.948;-1.458;2023-01-25T01:10:48;103451.21;;;2.37;33.10
70571;BME280;58135;50.948;-1.458;2023-01-25T01:11:49;103452.08;;;2.39;33.02
70571;BME280;58135;50.948;-1.458;2023-01-25T01:12:50;103454.38;;;2.37;32.98
70571;BME280;58135;50.948;-1.458;2023-01-25T01:13:50;103454.23;;;2.34;32.99
70571;BME280;58135;50.948;-1.458;2023-01-25T01:14:50;103454.24;;;2.34;32.97
70571;BME280;58135;50.948;-1.458;2023-01-25T01:15:51;103450.65;;;2.32;33.01
70571;BME280;58135;50.948;-1.458;2023-01-25T01:16:51;103448.20;;;2.31;33.09
70571;BME280;58135;50.948;-1.458;2023-01-25T01:17:51;103446.02;;;2.31;33.12
70571;BME280;58135;50.948;-1.458;2023-01-25T01:18:52;103442.53;;;2.32;33.10
70571;BME280;58135;50.948;-1.458;2023-01-25T01:19:52;103441.90;;;2.36;33.00
70571;BME280;58135;50.948;-1.458;2023-01-25T01:20:53;103441.20;;;3.27;32.93
70571;BME280;58135;50.948;-1.458;2023-01-25T01:21:53;103437.88;;;2.35;32.93
70571;BME280;58135;50.948;-1.458;2023-01-25T01:22:54;103439.36;;;2.79;32.92
70571;BME280;58135;50.948;-1.458;2023-01-25T01:23:54;103436.81;;;2.31;32.91
70571;BME280;58135;50.948;-1.458;2023-01-25T01:24:54;103435.76;;;2.33;32.89
70571;BME280;58135;50.948;-1.458;2023-01-25T01:25:54;103434.66;;;2.35;32.87
70571;BME280;58135;50.948;-1.458;2023-01-25T01:26:55;103434.47;;;2.40;32.80
70571;BME280;58135;50.948;-1.458;2023-01-25T01:27:56;103433.80;;;2.41;32.74
70571;BME280;58135;50.948;-1.458;2023-01-25T01:28:57;103433.99;;;2.37;32.69
70571;BME280;58135;50.948;-1.458;2023-01-25T01:29:57;103432.38;;;2.25;32.71
70571;BME280;58135;50.948;-1.458;2023-01-25T01:30:59;103433.86;;;2.15;32.77
70571;BME280;58135;50.948;-1.458;2023-01-25T01:31:58;103430.82;;;2.13;32.80
70571;BME280;58135;50.948;-1.458;2023-01-25T01:32:58;103431.03;;;2.14;32.81
70571;BME280;58135;50.948;-1.458;2023-01-25T01:33:58;103431.37;;;2.12;32.86
70571;BME280;58135;50.948;-1.458;2023-01-25T01:34:58;103431.31;;;2.13;32.91
70571;BME280;58135;50.948;-1.458;2023-01-25T01:36:05;103431.08;;;2.15;32.92
70571;BME280;58135;50.948;-1.458;2023-01-25T01:36:59;103431.39;;;2.17;32.90
70571;BME280;58135;50.948;-1.458;2023-01-25T01:37:59;103427.94;;;2.19;32.91
70571;BME280;58135;50.948;-1.458;2023-01-25T01:39:00;103428.27;;;2.19;32.92
70571;BME280;58135;50.948;-1.458;2023-01-25T01:40:00;103429.41;;;2.20;32.89
70571;BME280;58135;50.948;-1.458;2023-01-25T01:41:01;103429.21;;;2.63;32.86
70571;BME280;58135;50.948;-1.458;2023-01-25T01:42:01;103428.08;;;2.15;32.86
70571;BME280;58135;50.948;-1.458;2023-01-25T01:43:03;103428.51;;;2.16;32.84
70571;BME280;58135;50.948;-1.458;2023-01-25T01:44:03;103429.03;;;1.75;32.79
70571;BME280;58135;50.948;-1.458;2023-01-25T01:46:04;103431.04;;;2.21;32.80
70571;BME280;58135;50.948;-1.458;2023-01-25T01:47:03;103428.37;;;2.66;32.87
70571;BME280;58135;50.948;-1.458;2023-01-25T01:48:04;103432.18;;;2.21;32.89
70571;BME280;58135;50.948;-1.458;2023-01-25T01:49:09;103432.34;;;2.22;32.89
70571;BME280;58135;50.948;-1.458;2023-01-25T01:50:16;103430.88;;;1.74;32.85
70571;BME280;58135;50.948;-1.458;2023-01-25T01:51:14;103430.79;;;2.17;32.88
70571;BME280;58135;50.948;-1.458;2023-01-25T01:52:09;103431.76;;;1.74;32.92
70571;BME280;58135;50.948;-1.458;2023-01-25T01:53:07;103433.24;;;2.27;32.90
70571;BME280;58135;50.948;-1.458;2023-01-25T01:54:08;103433.81;;;2.32;32.90
70571;BME280;58135;50.948;-1.458;2023-01-25T01:55:09;103437.06;;;2.35;32.92
70571;BME280;58135;50.948;-1.458;2023-01-25T01:56:11;103437.99;;;2.34;32.91
70571;BME280;58135;50.948;-1.458;2023-01-25T01:57:11;103439.44;;;2.37;32.92
70571;BME280;58135;50.948;-1.458;2023-01-25T01:58:09;103440.38;;;2.35;32.81
70571;BME280;58135;50.948;-1.458;2023-01-25T01:59:09;103437.71;;;2.27;32.89
70571;BME280;58135;50.948;-1.458;2023-01-25T02:00:12;103440.74;;;2.29;32.93
70571;BME280;58135;50.948;-1.458;2023-01-25T02:01:10;103442.50;;;2.35;32.94
70571;BME280;58135;50.948;-1.458;2023-01-25T02:02:10;103443.36;;;1.93;32.93
70571;BME280;58135;50.948;-1.458;2023-01-25T02:03:12;103443.07;;;2.42;32.94
70571;BME280;58135;50.948;-1.458;2023-01-25T02:04:12;103440.91;;;2.00;32.94
70571;BME280;58135;50.948;-1.458;2023-01-25T02:05:18;103440.18;;;2.49;32.95
70571;BME280;58135;50.948;-1.458;2023-01-25T02:06:14;103439.61;;;2.53;33.01
70571;BME280;58135;50.948;-1.458;2023-01-25T02:07:17;103440.80;;;2.55;33.02
70571;BME280;58135;50.948;-1.458;2023-01-25T02:08:13;103439.15;;;2.11;33.02
70571;BME280;58135;50.948;-1.458;2023-01-25T02:09:15;103440.05;;;2.61;32.99
70571;BME280;58135;50.948;-1.458;2023-01-25T02:10:13;103439.48;;;2.64;32.98
70571;BME280;58135;50.948;-1.458;2023-01-25T02:11:14;103441.87;;;2.20;32.94
70571;BME280;58135;50.948;-1.458;2023-01-25T02:12:14;103441.65;;;2.66;32.97
70571;BME280;58135;50.948;-1.458;2023-01-25T02:13:15;103443.27;;;2.70;32.96
70571;BME280;58135;50.948;-1.458;2023-01-25T02:14:16;103443.24;;;1.83;32.95
70571;BME280;58135;50.948;-1.458;2023-01-25T02:15:15;103443.97;;;2.78;32.94
70571;BME280;58135;50.948;-1.458;2023-01-25T02:16:18;103441.54;;;2.83;32.96
70571;BME280;58135;50.948;-1.458;2023-01-25T02:17:18;103443.80;;;2.88;32.95
70571;BME280;58135;50.948;-1.458;2023-01-25T02:18:18;103443.12;;;2.91;32.93
70571;BME280;58135;50.948;-1.458;2023-01-25T02:19:30;103443.32;;;2.93;32.92
70571;BME280;58135;50.948;-1.458;2023-01-25T02:20:22;103442.95;;;2.92;32.96
70571;BME280;58135;50.948;-1.458;2023-01-25T02:21:18;103443.55;;;2.92;32.98
70571;BME280;58135;50.948;-1.458;2023-01-25T02:22:24;103442.55;;;2.94;32.99
70571;BME280;58135;50.948;-1.458;2023-01-25T02:23:24;103442.16;;;2.50;32.99
70571;BME280;58135;50.948;-1.458;2023-01-25T02:24:22;103441.66;;;2.98;33.00
70571;BME280;58135;50.948;-1.458;2023-01-25T02:25:20;103441.91;;;3.00;32.98
70571;BME280;58135;50.948;-1.458;2023-01-25T02:26:21;103441.46;;;2.57;32.97
70571;BME280;58135;50.948;-1.458;2023-01-25T02:27:21;103444.78;;;2.58;32.96
70571;BME280;58135;50.948;-1.458;2023-01-25T02:28:25;103446.78;;;2.15;32.96
70571;BME280;58135;50.948;-1.458;2023-01-25T02:29:23;103445.88;;;2.64;32.94
70571;BME280;58135;50.948;-1.458;2023-01-25T02:30:22;103444.05;;;3.14;32.92
70571;BME280;58135;50.948;-1.458;2023-01-25T02:31:23;103444.88;;;2.28;32.87
70571;BME280;58135;50.948;-1.458;2023-01-25T02:32:24;103445.95;;;2.78;32.85
70571;BME280;58135;50.948;-1.458;2023-01-25T02:33:25;103445.72;;;3.24;32.84
70571;BME280;58135;50.948;-1.458;2023-01-25T02:34:24;103446.65;;;3.24;32.83
70571;BME280;58135;50.948;-1.458;2023-01-25T02:35:36;103447.32;;;2.77;32.86
70571;BME280;58135;50.948;-1.458;2023-01-25T02:36:27;103447.91;;;2.33;32.93
70571;BME280;58135;50.948;-1.458;2023-01-25T02:37:25;103447.14;;;3.25;32.97
70571;BME280;58135;50.948;-1.458;2023-01-25T02:38:29;103446.36;;;2.80;33.05
70571;BME280;58135;50.948;-1.458;2023-01-25T02:39:26;103447.99;;;2.81;33.07
70571;BME280;58135;50.948;-1.458;2023-01-25T02:40:28;103447.51;;;3.26;33.05
70571;BME280;58135;50.948;-1.458;2023-01-25T02:41:31;103446.36;;;3.26;33.03
70571;BME280;58135;50.948;-1.458;2023-01-25T02:42:29;103447.24;;;2.80;33.03
70571;BME280;58135;50.948;-1.458;2023-01-25T02:43:30;103443.63;;;3.19;33.04
70571;BME280;58135;50.948;-1.458;2023-01-25T02:44:31;103442.32;;;3.13;33.09
70571;BME280;58135;50.948;-1.458;2023-01-25T02:45:29;103439.81;;;3.12;33.17
70571;BME280;58135;50.948;-1.458;2023-01-25T02:46:31;103439.65;;;3.12;33.16
70571;BME280;58135;50.948;-1.458;2023-01-25T02:47:30;103438.36;;;2.63;33.21
70571;BME280;58135;50.948;-1.458;2023-01-25T02:48:31;103439.70;;;3.04;33.27
70571;BME280;58135;50.948;-1.458;2023-01-25T02:49:34;103439.11;;;2.58;33.32
70571;BME280;58135;50.948;-1.458;2023-01-25T02:50:32;103437.67;;;3.06;33.33
70571;BME280;58135;50.948;-1.458;2023-01-25T02:51:35;103436.13;;;2.63;33.33
70571;BME280;58135;50.948;-1.458;2023-01-25T02:52:33;103437.36;;;3.11;33.34
70571;BME280;58135;50.948;-1.458;2023-01-25T02:53:34;103439.18;;;3.16;33.37
70571;BME280;58135;50.948;-1.458;2023-01-25T02:54:34;103440.81;;;3.24;33.38
70571;BME280;58135;50.948;-1.458;2023-01-25T02:55:35;103442.09;;;2.38;33.35
70571;BME280;58135;50.948;-1.458;2023-01-25T02:56:36;103443.49;;;2.85;33.37
70571;BME280;58135;50.948;-1.458;2023-01-25T02:57:36;103443.77;;;2.92;33.37
70571;BME280;58135;50.948;-1.458;2023-01-25T02:58:36;103443.13;;;2.52;33.35
70571;BME280;58135;50.948;-1.458;2023-01-25T02:59:37;103443.98;;;3.00;33.35
70571;BME280;58135;50.948;-1.458;2023-01-25T03:00:37;103445.47;;;3.05;33.40
70571;BME280;58135;50.948;-1.458;2023-01-25T03:01:40;103443.71;;;3.07;33.38
70571;BME280;58135;50.948;-1.458;2023-01-25T03:02:38;103444.46;;;3.02;33.39
70571;BME280;58135;50.948;-1.458;2023-01-25T03:03:39;103444.93;;;2.52;33.42
70571;BME280;58135;50.948;-1.458;2023-01-25T03:04:39;103446.60;;;2.93;33.48
70571;BME280;58135;50.948;-1.458;2023-01-25T03:05:40;103446.80;;;2.96;33.55
70571;BME280;58135;50.948;-1.458;2023-01-25T03:06:41;103447.23;;;2.50;33.54
70571;BME280;58135;50.948;-1.458;2023-01-25T03:07:41;103446.21;;;2.86;33.60
70571;BME280;58135;50.948;-1.458;2023-01-25T03:08:41;103443.52;;;2.81;33.71
70571;BME280;58135;50.948;-1.458;2023-01-25T03:09:41;103442.15;;;2.37;33.71
70571;BME280;58135;50.948;-1.458;2023-01-25T03:10:42;103443.56;;;2.83;33.77
70571;BME280;58135;50.948;-1.458;2023-01-25T03:11:42;103443.64;;;2.87;33.81
70571;BME280;58135;50.948;-1.458;2023-01-25T03:12:43;103442.74;;;2.84;33.86
70571;BME280;58135;50.948;-1.458;2023-01-25T03:13:43;103443.19;;;3.28;33.94
70571;BME280;58135;50.948;-1.458;2023-01-25T03:14:43;103442.65;;;2.81;33.99
70571;BME280;58135;50.948;-1.458;2023-01-25T03:15:43;103443.45;;;2.84;34.00
70571;BME280;58135;50.948;-1.458;2023-01-25T03:16:44;103441.93;;;2.90;33.99
70571;BME280;58135;50.948;-1.458;2023-01-25T03:17:44;103443.26;;;3.02;33.96
70571;BME280;58135;50.948;-1.458;2023-01-25T03:18:45;103445.73;;;3.14;33.93
70571;BME280;58135;50.948;-1.458;2023-01-25T03:19:45;103442.49;;;2.77;33.89
70571;BME280;58135;50.948;-1.458;2023-01-25T03:20:46;103441.45;;;3.31;33.89
70571;BME280;58135;50.948;-1.458;2023-01-25T03:21:46;103437.69;;;3.37;33.83
70571;BME280;58135;50.948;-1.458;2023-01-25T03:22:47;103435.23;;;2.99;33.79
70571;BME280;58135;50.948;-1.458;2023-01-25T03:23:54;103434.08;;;3.05;33.73
70571;BME280;58135;50.948;-1.458;2023-01-25T03:24:48;103432.62;;;3.11;33.70
70571;BME280;58135;50.948;-1.458;2023-01-25T03:25:49;103431.78;;;3.59;33.69
70571;BME280;58135;50.948;-1.458;2023-01-25T03:26:50;103428.10;;;3.16;33.65
70571;BME280;58135;50.948;-1.458;2023-01-25T03:27:51;103427.09;;;3.19;33.62
70571;BME280;58135;50.948;-1.458;2023-01-25T03:28:51;103427.47;;;3.25;33.61
70571;BME280;58135;50.948;-1.458;2023-01-25T03:29:52;103424.42;;;3.31;33.58
70571;BME280;58135;50.948;-1.458;2023-01-25T03:30:53;103425.58;;;3.81;33.54
70571;BME280;58135;50.948;-1.458;2023-01-25T03:31:53;103424.66;;;3.41;33.50
70571;BME280;58135;50.948;-1.458;2023-01-25T03:32:54;103425.07;;;3.90;33.49
70571;BME280;58135;50.948;-1.458;2023-01-25T03:33:54;103424.70;;;3.49;33.47
70571;BME280;58135;50.948;-1.458;2023-01-25T03:34:55;103424.29;;;3.53;33.37
70571;BME280;58135;50.948;-1.458;2023-01-25T03:35:55;103424.99;;;3.47;33.31
70571;BME280;58135;50.948;-1.458;2023-01-25T03:36:56;103421.04;;;3.89;33.35
70571;BME280;58135;50.948;-1.458;2023-01-25T03:37:57;103423.32;;;3.39;33.31
70571;BME280;58135;50.948;-1.458;2023-01-25T03:38:58;103421.35;;;3.27;33.34
70571;BME280;58135;50.948;-1.458;2023-01-25T03:39:58;103421.90;;;3.59;33.38
70571;BME280;58135;50.948;-1.458;2023-01-25T03:40:58;103420.37;;;3.07;33.48
70571;BME280;58135;50.948;-1.458;2023-01-25T03:41:58;103422.52;;;3.11;33.53
70571;BME280;58135;50.948;-1.458;2023-01-25T03:42:59;103421.43;;;3.17;33.54
70571;BME280;58135;50.948;-1.458;2023-01-25T03:43:59;103420.77;;;3.24;33.51
70571;BME280;58135;50.948;-1.458;2023-01-25T03:45:00;103420.17;;;3.31;33.54
70571;BME280;58135;50.948;-1.458;2023-01-25T03:46:01;103418.72;;;3.79;33.58
70571;BME280;58135;50.948;-1.458;2023-01-25T03:47:00;103415.70;;;3.36;33.60
70571;BME280;58135;50.948;-1.458;2023-01-25T03:48:01;103414.89;;;3.40;33.60
70571;BME280;58135;50.948;-1.458;2023-01-25T03:49:02;103414.79;;;3.46;33.57
70571;BME280;58135;50.948;-1.458;2023-01-25T03:50:01;103412.80;;;3.94;33.52
70571;BME280;58135;50.948;-1.458;2023-01-25T03:51:02;103409.50;;;3.97;33.51
70571;BME280;58135;50.948;-1.458;2023-01-25T03:52:03;103408.21;;;3.55;33.45
70571;BME280;58135;50.948;-1.458;2023-01-25T03:53:03;103408.25;;;3.96;33.42
70571;BME280;58135;50.948;-1.458;2023-01-25T03:54:05;103405.94;;;3.41;33.47
70571;BME280;58135;50.948;-1.458;2023-01-25T03:55:06;103405.96;;;3.39;33.52
70571;BME280;58135;50.948;-1.458;2023-01-25T03:56:07;103403.68;;;3.37;33.56
70571;BME280;58135;50.948;-1.458;2023-01-25T03:57:06;103403.86;;;3.87;33.58
70571;BME280;58135;50.948;-1.458;2023-01-25T03:58:06;103404.61;;;3.48;33.56
70571;BME280;58135;50.948;-1.458;2023-01-25T03:59:07;103405.71;;;4.00;33.56
70571;BME280;58135;50.948;-1.458;2023-01-25T04:00:08;103403.49;;;3.58;33.54
70571;BME280;58135;50.948;-1.458;2023-01-25T04:01:08;103401.27;;;3.55;33.54
70571;BME280;58135;50.948;-1.458;2023-01-25T04:02:08;103401.22;;;3.55;33.57
70571;BME280;58135;50.948;-1.458;2023-01-25T04:03:09;103400.69;;;3.53;33.54
70571;BME280;58135;50.948;-1.458;2023-01-25T04:04:10;103398.63;;;3.00;33.57
70571;BME280;58135;50.948;-1.458;2023-01-25T04:05:10;103396.26;;;3.48;33.59
70571;BME280;58135;50.948;-1.458;2023-01-25T04:06:11;103393.56;;;3.05;33.58
70571;BME280;58135;50.948;-1.458;2023-01-25T04:07:12;103395.81;;;3.55;33.55
70571;BME280;58135;50.948;-1.458;2023-01-25T04:08:12;103395.22;;;3.60;33.51
70571;BME280;58135;50.948;-1.458;2023-01-25T04:09:13;103394.60;;;3.62;33.55
70571;BME280;58135;50.948;-1.458;2023-01-25T04:10:14;103394.05;;;3.63;33.59
70571;BME280;58135;50.948;-1.458;2023-01-25T04:11:14;103395.41;;;3.69;33.58
70571;BME280;58135;50.948;-1.458;2023-01-25T04:12:15;103395.85;;;3.75;33.54
70571;BME280;58135;50.948;-1.458;2023-01-25T04:13:15;103398.61;;;4.23;33.55
70571;BME280;58135;50.948;-1.458;2023-01-25T04:14:15;103396.73;;;3.34;33.55
70571;BME280;58135;50.948;-1.458;2023-01-25T04:15:16;103396.85;;;3.84;33.54
70571;BME280;58135;50.948;-1.458;2023-01-25T04:16:17;103394.36;;;3.87;33.53
70571;BME280;58135;50.948;-1.458;2023-01-25T04:17:18;103394.72;;;3.90;33.49
70571;BME280;58135;50.948;-1.458;2023-01-25T04:18:19;103390.86;;;3.48;33.46
70571;BME280;58135;50.948;-1.458;2023-01-25T04:19:19;103389.08;;;4.43;33.43
70571;BME280;58135;50.948;-1.458;2023-01-25T04:20:19;103388.83;;;4.00;33.41
70571;BME280;58135;50.948;-1.458;2023-01-25T04:21:20;103387.88;;;4.03;33.40
70571;BME280;58135;50.948;-1.458;2023-01-25T04:22:20;103388.95;;;4.04;33.41
70571;BME280;58135;50.948;-1.458;2023-01-25T04:23:22;103392.55;;;4.05;33.36
70571;BME280;58135;50.948;-1.458;2023-01-25T04:24:22;103393.41;;;3.09;33.35
70571;BME280;58135;50.948;-1.458;2023-01-25T04:25:22;103394.40;;;4.00;33.37
70571;BME280;58135;50.948;-1.458;2023-01-25T04:26:22;103390.24;;;4.07;33.35
70571;BME280;58135;50.948;-1.458;2023-01-25T04:27:23;103390.97;;;4.10;33.34
70571;BME280;58135;50.948;-1.458;2023-01-25T04:28:24;103391.58;;;4.15;33.31
70571;BME280;58135;50.948;-1.458;2023-01-25T04:29:24;103393.06;;;3.74;33.30
70571;BME280;58135;50.948;-1.458;2023-01-25T04:30:25;103391.49;;;4.24;33.29
70571;BME280;58135;50.948;-1.458;2023-01-25T04:31:25;103390.32;;;3.80;33.19
70571;BME280;58135;50.948;-1.458;2023-01-25T04:32:25;103391.55;;;3.78;33.20
70571;BME280;58135;50.948;-1.458;2023-01-25T04:33:27;103390.57;;;3.78;33.26
70571;BME280;58135;50.948;-1.458;2023-01-25T04:34:26;103391.83;;;4.28;33.24
70571;BME280;58135;50.948;-1.458;2023-01-25T04:35:26;103393.12;;;4.35;33.22
70571;BME280;58135;50.948;-1.458;2023-01-25T04:36:27;103394.46;;;3.92;33.18
70571;BME280;58135;50.948;-1.458;2023-01-25T04:37:27;103392.36;;;4.40;33.18
70571;BME280;58135;50.948;-1.458;2023-01-25T04:38:28;103392.31;;;3.48;33.16
70571;BME280;58135;50.948;-1.458;2023-01-25T04:39:28;103394.65;;;4.41;33.17
70571;BME280;58135;50.948;-1.458;2023-01-25T04:40:29;103392.14;;;4.46;33.16
70571;BME280;58135;50.948;-1.458;2023-01-25T04:41:30;103389.38;;;4.03;33.10
70571;BME280;58135;50.948;-1.458;2023-01-25T04:42:30;103390.41;;;3.98;33.10
70571;BME280;58135;50.948;-1.458;2023-01-25T04:43:30;103390.03;;;3.52;33.15
70571;BME280;58135;50.948;-1.458;2023-01-25T04:44:31;103392.13;;;3.55;33.14
70571;BME280;58135;50.948;-1.458;2023-01-25T04:45:31;103394.88;;;3.94;33.20
70571;BME280;58135;50.948;-1.458;2023-01-25T04:46:31;103393.39;;;3.45;33.26
70571;BME280;58135;50.948;-1.458;2023-01-25T04:47:32;103394.90;;;3.87;33.32
70571;BME280;58135;50.948;-1.458;2023-01-25T04:48:32;103396.42;;;4.33;33.35
70571;BME280;58135;50.948;-1.458;2023-01-25T04:49:34;103395.65;;;4.28;33.38
70571;BME280;58135;50.948;-1.458;2023-01-25T04:50:33;103397.60;;;3.38;33.42
70571;BME280;58135;50.948;-1.458;2023-01-25T04:51:33;103395.83;;;4.32;33.40
70571;BME280;58135;50.948;-1.458;2023-01-25T04:52:34;103395.72;;;4.32;33.39
70571;BME280;58135;50.948;-1.458;2023-01-25T04:53:33;103396.21;;;3.87;33.37
70571;BME280;58135;50.948;-1.458;2023-01-25T04:54:34;103396.38;;;3.86;33.36
70571;BME280;58135;50.948;-1.458;2023-01-25T04:55:34;103392.84;;;3.85;33.38
70571;BME280;58135;50.948;-1.458;2023-01-25T04:56:35;103395.15;;;3.84;33.40
70571;BME280;58135;50.948;-1.458;2023-01-25T04:57:36;103394.68;;;4.33;33.40
70571;BME280;58135;50.948;-1.458;2023-01-25T04:58:36;103395.76;;;3.93;33.40
70571;BME280;58135;50.948;-1.458;2023-01-25T04:59:36;103397.50;;;4.00;33.41
70571;BME280;58135;50.948;-1.458;2023-01-25T05:00:37;103393.56;;;4.51;33.39
70571;BME280;58135;50.948;-1.458;2023-01-25T05:01:36;103395.86;;;4.10;33.37
70571;BME280;58135;50.948;-1.458;2023-01-25T05:02:37;103397.68;;;3.73;33.32
70571;BME280;58135;50.948;-1.458;2023-01-25T05:03:37;103394.90;;;4.69;33.29
70571;BME280;58135;50.948;-1.458;2023-01-25T05:04:38;103394.73;;;4.24;33.27
70571;BME280;58135;50.948;-1.458;2023-01-25T05:05:44;103393.98;;;3.77;33.32
70571;BME280;58135;50.948;-1.458;2023-01-25T05:06:39;103390.91;;;3.77;33.33
70571;BME280;58135;50.948;-1.458;2023-01-25T05:07:40;103389.44;;;4.23;33.33
70571;BME280;58135;50.948;-1.458;2023-01-25T05:08:41;103387.78;;;3.79;33.32
70571;BME280;58135;50.948;-1.458;2023-01-25T05:09:41;103390.16;;;4.73;33.31
70571;BME280;58135;50.948;-1.458;2023-01-25T05:10:42;103386.09;;;4.30;33.30
70571;BME280;58135;50.948;-1.458;2023-01-25T05:11:42;103384.74;;;4.78;33.27
70571;BME280;58135;50.948;-1.458;2023-01-25T05:12:42;103384.66;;;4.81;33.24
70571;BME280;58135;50.948;-1.458;2023-01-25T05:13:43;103383.91;;;4.84;33.20
70571;BME280;58135;50.948;-1.458;2023-01-25T05:14:43;103386.45;;;4.41;33.16
70571;BME280;58135;50.948;-1.458;2023-01-25T05:15:44;103388.79;;;4.88;33.15
70571;BME280;58135;50.948;-1.458;2023-01-25T05:16:45;103387.47;;;4.84;33.10